createdAt,value
2018-09-13T00:00:38.840Z,51.98
2018-09-13T00:03:12.437Z,51.31
2018-09-13T00:05:41.269Z,51.16
2018-09-13T00:08:15.849Z,51.78
2018-09-13T00:10:44.772Z,51.42
2018-09-13T00:13:13.578Z,52.24
2018-09-13T00:15:42.972Z,51.27
2018-09-13T00:18:11.824Z,52.33
2018-09-13T00:20:42.852Z,51.74
2018-09-13T00:23:11.933Z,51.77
2018-09-13T00:25:55.179Z,51.52
2018-09-13T00:28:24.316Z,52.11
2018-09-13T00:30:53.156Z,51.35
2018-09-13T00:33:21.964Z,51.99
2018-09-13T00:35:51.221Z,51.16
2018-09-13T00:38:20.064Z,51.80
2018-09-13T00:40:48.839Z,52.37
2018-09-13T00:43:17.999Z,51.80
2018-09-13T00:45:46.819Z,51.91
2018-09-13T00:48:15.586Z,52.70
2018-09-13T00:50:44.618Z,52.87
2018-09-13T00:53:13.602Z,52.69
2018-09-13T00:55:42.400Z,52.03
2018-09-13T00:58:11.545Z,52.75
2018-09-13T01:00:40.385Z,52.85
2018-09-13T01:03:09.229Z,52.86
2018-09-13T01:05:43.143Z,52.98
2018-09-13T01:08:11.948Z,52.43
2018-09-13T01:10:40.838Z,52.23
2018-09-13T01:13:09.960Z,52.36
2018-09-13T01:15:38.749Z,53.27
2018-09-13T01:18:22.244Z,52.70
2018-09-13T01:20:54.844Z,52.85
2018-09-13T01:23:24.505Z,53.49
2018-09-13T01:25:53.270Z,52.65
2018-09-13T01:28:27.055Z,53.22
2018-09-13T01:30:56.210Z,53.63
2018-09-13T01:33:27.980Z,53.43
2018-09-13T01:35:56.963Z,52.92
2018-09-13T01:38:25.807Z,53.15
2018-09-13T01:40:54.932Z,53.71
2018-09-13T01:43:23.993Z,54.08
2018-09-13T01:45:52.859Z,53.84
2018-09-13T01:48:21.988Z,54.10
2018-09-13T01:50:50.861Z,54.12
2018-09-13T01:53:19.708Z,54.52
2018-09-13T01:55:48.915Z,54.63
2018-09-13T01:58:18.377Z,54.17
2018-09-13T02:00:47.180Z,54.28
2018-09-13T02:03:16.091Z,54.79
2018-09-13T02:05:45.164Z,54.63
2018-09-13T02:08:13.983Z,54.51
2018-09-13T02:10:42.812Z,54.75
2018-09-13T02:13:11.632Z,54.79
2018-09-13T02:15:40.712Z,55.40
2018-09-13T02:18:09.580Z,54.92
2018-09-13T02:20:38.422Z,55.37
2018-09-13T02:23:07.581Z,55.56
2018-09-13T02:25:39.643Z,56.78
2018-09-13T02:28:08.511Z,56.36
2018-09-13T02:30:42.350Z,56.73
2018-09-13T02:33:11.184Z,56.66
2018-09-13T02:35:42.785Z,55.99
2018-09-13T02:38:12.875Z,56.77
2018-09-13T02:40:41.802Z,56.76
2018-09-13T02:43:10.608Z,56.40
2018-09-13T02:45:39.704Z,56.88
2018-09-13T02:48:08.497Z,56.46
2018-09-13T02:50:37.280Z,56.31
2018-09-13T02:53:06.271Z,56.45
2018-09-13T02:55:35.070Z,57.67
2018-09-13T02:58:04.553Z,58.16
2018-09-13T03:00:33.682Z,57.63
2018-09-13T03:03:02.554Z,57.04
2018-09-13T03:05:31.342Z,57.62
2018-09-13T03:08:00.446Z,57.79
2018-09-13T03:10:29.263Z,57.16
2018-09-13T03:12:58.052Z,57.53
2018-09-13T03:15:26.850Z,57.62
2018-09-13T03:17:55.779Z,57.48
2018-09-13T03:20:24.937Z,57.33
2018-09-13T03:22:53.728Z,57.45
2018-09-13T03:28:32.898Z,58.25
2018-09-13T03:31:03.592Z,58.30
2018-09-13T03:33:32.847Z,58.16
2018-09-13T03:36:02.589Z,57.93
2018-09-13T03:38:31.512Z,59.39
2018-09-13T03:41:00.367Z,59.42
2018-09-13T03:43:29.213Z,59.09
2018-09-13T03:48:33.694Z,58.09
2018-09-13T03:51:03.503Z,58.89
2018-09-13T03:53:32.338Z,58.18
2018-09-13T03:56:06.300Z,58.65
2018-09-13T03:58:35.122Z,58.67
2018-09-13T04:01:04.055Z,58.07
2018-09-13T04:03:33.252Z,58.67
2018-09-13T04:06:04.252Z,58.22
2018-09-13T04:08:36.203Z,58.90
2018-09-13T04:11:05.340Z,58.95
2018-09-13T04:13:34.294Z,59.13
2018-09-13T04:16:03.685Z,58.96
2018-09-13T04:18:34.168Z,59.33
2018-09-13T04:21:03.057Z,59.42
2018-09-13T04:23:31.884Z,59.68
2018-09-13T04:26:01.250Z,59.22
2018-09-13T04:28:30.223Z,59.42
2018-09-13T04:30:59.064Z,59.11
2018-09-13T04:33:58.669Z,59.87
2018-09-13T04:36:32.649Z,59.88
2018-09-13T04:39:01.893Z,60.14
2018-09-13T04:41:32.429Z,59.58
2018-09-13T04:44:12.050Z,59.78
2018-09-13T04:46:41.184Z,59.63
2018-09-13T04:49:10.236Z,60.17
2018-09-13T04:51:39.024Z,60.04
2018-09-13T04:54:08.117Z,60.57
2018-09-13T04:56:36.950Z,59.85
2018-09-13T04:59:06.260Z,60.42
2018-09-13T05:01:35.688Z,59.86
2018-09-13T05:04:05.359Z,60.11
2018-09-13T05:06:34.219Z,59.84
2018-09-13T05:09:04.213Z,60.16
2018-09-13T05:11:36.461Z,60.36
2018-09-13T05:14:07.483Z,60.79
2018-09-13T05:16:36.577Z,60.32
2018-09-13T05:19:05.502Z,59.59
2018-09-13T05:21:34.496Z,59.45
2018-09-13T05:24:09.575Z,59.80
2018-09-13T05:26:38.475Z,60.01
2018-09-13T05:29:08.718Z,59.86
2018-09-13T05:31:41.601Z,59.17
2018-09-13T05:34:10.494Z,59.11
2018-09-13T05:36:39.313Z,59.98
2018-09-13T05:39:13.447Z,60.15
2018-09-13T05:41:43.378Z,59.76
2018-09-13T05:44:12.802Z,59.91
2018-09-13T05:46:42.031Z,58.87
2018-09-13T05:49:10.990Z,59.80
2018-09-13T05:51:39.964Z,59.71
2018-09-13T05:54:08.930Z,59.55
2018-09-13T05:56:37.861Z,59.00
2018-09-13T06:01:42.324Z,59.16
2018-09-13T06:04:11.299Z,59.18
2018-09-13T06:06:40.525Z,59.13
2018-09-13T06:09:10.485Z,58.85
2018-09-13T06:11:39.751Z,58.86
2018-09-13T06:14:14.248Z,58.66
2018-09-13T06:16:48.047Z,58.92
2018-09-13T06:19:16.919Z,58.61
2018-09-13T06:21:45.783Z,59.27
2018-09-13T06:24:15.028Z,58.91
2018-09-13T06:26:44.715Z,58.82
2018-09-13T06:29:20.457Z,59.45
2018-09-13T06:31:49.716Z,58.20
2018-09-13T06:34:18.930Z,59.13
2018-09-13T06:36:47.874Z,58.35
2018-09-13T06:39:17.134Z,58.16
2018-09-13T06:41:46.025Z,58.40
2018-09-13T06:44:14.897Z,58.25
2018-09-13T06:46:48.191Z,57.99
2018-09-13T06:51:44.569Z,58.71
2018-09-13T06:54:13.824Z,58.22
2018-09-13T06:56:42.677Z,57.54
2018-09-13T06:59:11.645Z,57.11
2018-09-13T07:01:40.773Z,57.24
2018-09-13T07:04:09.990Z,57.39
2018-09-13T07:06:38.893Z,57.06
2018-09-13T07:09:11.274Z,57.51
2018-09-13T07:11:40.150Z,56.79
2018-09-13T07:14:09.035Z,56.79
2018-09-13T07:16:38.241Z,56.22
2018-09-13T07:19:07.201Z,56.86
2018-09-13T07:21:36.245Z,56.58
2018-09-13T07:24:09.510Z,56.97
2018-09-13T07:26:38.460Z,56.19
2018-09-13T07:29:07.434Z,56.56
2018-09-13T07:31:36.637Z,56.58
2018-09-13T07:34:11.468Z,56.06
2018-09-13T07:36:40.440Z,56.47
2018-09-13T07:39:12.392Z,55.97
2018-09-13T07:41:41.441Z,56.56
2018-09-13T07:44:10.362Z,56.56
2018-09-13T07:46:41.680Z,55.72
2018-09-13T07:49:10.617Z,56.40
2018-09-13T07:51:39.505Z,55.60
2018-09-13T07:54:08.645Z,55.15
2018-09-13T07:56:37.659Z,55.57
2018-09-13T07:59:06.924Z,55.44
2018-09-13T08:01:36.030Z,54.70
2018-09-13T08:06:47.104Z,54.71
2018-09-13T08:09:16.015Z,55.51
2018-09-13T08:11:45.051Z,55.25
2018-09-13T08:14:14.187Z,55.57
2018-09-13T08:16:43.020Z,55.18
2018-09-13T08:19:15.984Z,55.15
2018-09-13T08:21:44.990Z,54.81
2018-09-13T08:24:13.789Z,54.22
2018-09-13T08:26:42.913Z,54.32
2018-09-13T08:29:11.720Z,54.42
2018-09-13T08:31:40.536Z,54.07
2018-09-13T08:34:09.494Z,54.19
2018-09-13T08:36:38.383Z,54.84
2018-09-13T08:39:10.645Z,54.65
2018-09-13T08:41:39.499Z,53.83
2018-09-13T08:46:46.767Z,54.32
2018-09-13T08:49:15.645Z,54.25
2018-09-13T08:51:44.824Z,52.97
2018-09-13T08:54:13.716Z,52.75
2018-09-13T08:56:42.631Z,53.45
2018-09-13T08:59:11.796Z,52.76
2018-09-13T09:01:40.835Z,52.27
2018-09-13T09:04:14.636Z,52.55
2018-09-13T09:06:43.767Z,52.29
2018-09-13T09:09:23.992Z,51.11
2018-09-13T09:11:53.212Z,51.04
2018-09-13T09:14:22.074Z,51.21
2018-09-13T09:16:56.507Z,50.68
2018-09-13T09:19:25.777Z,50.64
2018-09-13T09:21:54.695Z,50.49
2018-09-13T09:24:29.072Z,49.70
2018-09-13T09:26:59.275Z,50.72
2018-09-13T09:29:31.386Z,49.83
2018-09-13T09:32:00.492Z,49.53
2018-09-13T09:34:29.830Z,50.36
2018-09-13T09:36:58.817Z,50.19
2018-09-13T09:39:27.638Z,49.46
2018-09-13T09:41:56.819Z,50.26
2018-09-13T09:44:27.653Z,49.50
2018-09-13T09:46:56.531Z,49.83
2018-09-13T09:49:25.733Z,49.08
2018-09-13T09:51:54.666Z,50.08
2018-09-13T09:54:23.548Z,50.02
2018-09-13T09:56:52.740Z,49.30
2018-09-13T09:59:21.664Z,49.02
2018-09-13T10:01:55.602Z,49.58
2018-09-13T10:04:24.842Z,49.67
2018-09-13T10:06:53.757Z,49.01
2018-09-13T10:09:22.972Z,48.83
2018-09-13T10:11:52.131Z,48.77
2018-09-13T10:14:25.647Z,49.49
2018-09-13T10:16:59.730Z,48.69
2018-09-13T10:19:33.985Z,48.65
2018-09-13T10:24:47.830Z,49.16
2018-09-13T10:27:21.948Z,49.02
2018-09-13T10:29:56.014Z,49.42
2018-09-13T10:32:31.840Z,49.31
2018-09-13T10:37:46.036Z,50.68
2018-09-13T10:40:20.259Z,51.41
2018-09-13T10:42:54.260Z,51.18
2018-09-13T10:45:28.348Z,51.03
2018-09-13T10:48:03.385Z,50.52
2018-09-13T10:50:36.623Z,51.13
2018-09-13T10:53:44.450Z,51.39
2018-09-13T10:56:13.537Z,51.59
2018-09-13T10:58:42.694Z,51.24
2018-09-13T11:01:14.371Z,50.88
2018-09-13T11:03:43.306Z,50.99
2018-09-13T11:06:12.518Z,51.07
2018-09-13T11:08:41.456Z,51.57
2018-09-13T11:11:10.941Z,51.60
2018-09-13T11:13:49.102Z,52.39
2018-09-13T11:16:18.667Z,51.84
2018-09-13T11:18:48.013Z,52.36
2018-09-13T11:21:17.055Z,52.40
2018-09-13T11:23:45.985Z,52.40
2018-09-13T11:26:15.162Z,52.48
2018-09-13T11:28:55.165Z,52.70
2018-09-13T11:31:24.318Z,52.16
2018-09-13T11:35:25.059Z,51.35
2018-09-13T11:37:54.315Z,51.00
2018-09-13T11:40:23.315Z,50.96
2018-09-13T11:42:52.593Z,51.04
2018-09-13T11:45:26.125Z,51.40
2018-09-13T11:47:55.164Z,51.14
2018-09-13T11:50:24.089Z,51.11
2018-09-13T11:52:52.993Z,50.84
2018-09-13T11:55:21.870Z,50.99
2018-09-13T11:57:51.035Z,50.26
2018-09-13T12:00:25.884Z,51.72
2018-09-13T12:02:54.877Z,51.29
2018-09-13T12:05:29.392Z,51.35
2018-09-13T12:07:58.249Z,51.72
2018-09-13T12:10:27.233Z,50.86
2018-09-13T12:12:56.407Z,50.51
2018-09-13T12:15:25.590Z,51.35
2018-09-13T12:17:54.651Z,50.60
2018-09-13T12:20:28.671Z,49.99
2018-09-13T12:22:57.635Z,50.71
2018-09-13T12:25:26.511Z,50.11
2018-09-13T12:27:56.656Z,49.41
2018-09-13T12:30:25.520Z,49.41
2018-09-13T12:32:54.340Z,49.41
2018-09-13T12:35:23.534Z,49.22
2018-09-13T12:37:52.456Z,49.49
2018-09-13T12:40:21.334Z,49.19
2018-09-13T12:42:50.555Z,49.02
2018-09-13T12:45:19.412Z,49.18
2018-09-13T12:47:56.086Z,49.38
2018-09-13T12:50:25.493Z,48.37
2018-09-13T12:52:54.450Z,49.14
2018-09-13T12:55:27.411Z,48.26
2018-09-13T12:57:56.608Z,48.63
2018-09-13T13:03:06.418Z,47.86
2018-09-13T13:05:40.909Z,48.84
2018-09-13T13:08:09.845Z,48.41
2018-09-13T13:10:39.638Z,48.76
2018-09-13T13:13:08.535Z,48.78
2018-09-13T13:15:37.731Z,48.72
2018-09-13T13:18:06.753Z,47.95
2018-09-13T13:20:46.385Z,48.23
2018-09-13T13:23:15.585Z,48.70
2018-09-13T13:25:45.078Z,49.36
2018-09-13T13:28:13.974Z,48.51
2018-09-13T13:30:48.303Z,49.20
2018-09-13T13:33:17.178Z,49.14
2018-09-13T13:35:46.003Z,49.27
2018-09-13T13:38:15.239Z,49.04
2018-09-13T13:40:45.092Z,49.17
2018-09-13T13:43:13.992Z,49.23
2018-09-13T13:45:44.077Z,48.60
2018-09-13T13:48:24.250Z,48.21
2018-09-13T13:50:53.397Z,47.81
2018-09-13T13:53:22.965Z,48.02
2018-09-13T13:55:51.849Z,48.22
2018-09-13T13:58:21.782Z,48.35
2018-09-13T14:00:51.133Z,48.58
2018-09-13T14:03:22.530Z,48.13
2018-09-13T14:05:51.652Z,48.36
2018-09-13T14:08:22.705Z,48.16
2018-09-13T14:10:51.578Z,48.53
2018-09-13T14:13:20.804Z,47.97
2018-09-13T14:15:50.033Z,48.16
2018-09-13T14:18:21.984Z,48.88
2018-09-13T14:20:51.524Z,48.45
2018-09-13T14:23:24.505Z,49.24
2018-09-13T14:25:53.719Z,49.29
2018-09-13T14:28:26.154Z,48.55
2018-09-13T14:30:57.480Z,48.70
2018-09-13T14:33:32.847Z,48.82
2018-09-13T14:36:09.293Z,49.27
2018-09-13T14:41:20.450Z,49.33
2018-09-13T14:43:51.521Z,49.39
2018-09-13T14:46:25.433Z,49.38
2018-09-13T14:48:54.799Z,48.60
2018-09-13T14:51:24.792Z,48.75
2018-09-13T14:53:53.721Z,49.17
2018-09-13T14:56:22.889Z,49.49
2018-09-13T14:59:02.812Z,49.54
2018-09-13T15:01:31.757Z,49.55
2018-09-13T15:04:11.677Z,49.34
2018-09-13T15:06:41.093Z,50.45
2018-09-13T15:09:12.239Z,50.05
2018-09-13T15:11:41.110Z,51.39
2018-09-13T15:14:10.247Z,51.30
2018-09-13T15:16:39.133Z,53.51
2018-09-13T15:19:08.244Z,53.78
2018-09-13T15:21:37.453Z,54.44
2018-09-13T15:24:08.237Z,54.62
2018-09-13T15:26:37.116Z,56.36
2018-09-13T15:29:10.236Z,57.19
2018-09-13T15:31:39.127Z,57.88
2018-09-13T15:34:08.124Z,56.66
2018-09-13T15:36:37.264Z,57.80
2018-09-13T15:39:10.418Z,56.56
2018-09-13T15:41:39.403Z,56.54
2018-09-13T15:44:09.532Z,57.55
2018-09-13T15:46:38.496Z,57.14
2018-09-13T15:49:08.973Z,57.88
2018-09-13T15:51:38.442Z,58.28
2018-09-13T15:54:07.364Z,59.51
2018-09-13T15:56:40.976Z,58.66
2018-09-13T15:59:10.219Z,58.56
2018-09-13T16:01:39.205Z,59.47
2018-09-13T16:04:08.108Z,58.43
2018-09-13T16:06:41.305Z,58.97
2018-09-13T16:09:10.533Z,59.76
2018-09-13T16:11:39.377Z,60.12
2018-09-13T16:14:08.682Z,61.30
2018-09-13T16:16:38.876Z,61.19
2018-09-13T16:19:07.767Z,61.36
2018-09-13T16:21:37.106Z,61.38
2018-09-13T16:24:07.642Z,62.33
2018-09-13T16:26:37.386Z,62.21
2018-09-13T16:29:06.783Z,62.81
2018-09-13T16:31:35.806Z,63.09
2018-09-13T16:34:05.558Z,62.40
2018-09-13T16:36:35.100Z,63.81
2018-09-13T16:39:25.434Z,63.19
2018-09-13T16:42:00.017Z,63.90
2018-09-13T16:44:33.984Z,64.18
2018-09-13T16:47:08.397Z,65.07
2018-09-13T16:49:39.572Z,65.01
2018-09-13T16:52:08.530Z,65.24
2018-09-13T16:54:37.895Z,66.62
2018-09-13T16:57:06.841Z,66.72
2018-09-13T16:59:35.721Z,68.26
2018-09-13T17:02:10.809Z,68.46
2018-09-13T17:04:39.668Z,68.33
2018-09-13T17:07:08.735Z,68.93
2018-09-13T17:09:37.550Z,69.11
2018-09-13T17:12:06.442Z,68.85
2018-09-13T17:14:36.335Z,68.69
2018-09-13T17:17:05.836Z,70.32
2018-09-13T17:19:35.030Z,71.23
2018-09-13T17:22:04.931Z,70.61
2018-09-13T17:24:33.820Z,70.74
2018-09-13T17:27:03.580Z,71.58
2018-09-13T17:29:37.876Z,70.42
2018-09-13T17:32:06.884Z,69.54
2018-09-13T17:34:36.242Z,70.28
2018-09-13T17:37:08.093Z,70.23
2018-09-13T17:39:36.988Z,70.52
2018-09-13T17:42:17.144Z,71.31
2018-09-13T17:44:46.172Z,70.93
2018-09-13T17:47:15.189Z,70.33
2018-09-13T17:49:44.445Z,70.25
2018-09-13T17:52:13.320Z,71.29
2018-09-13T17:54:43.856Z,70.80
2018-09-13T17:57:13.140Z,70.70
2018-09-13T17:59:42.249Z,70.54
2018-09-13T18:02:11.168Z,70.60
2018-09-13T18:04:40.442Z,70.52
2018-09-13T18:07:09.845Z,70.05
2018-09-13T18:09:43.003Z,70.98
2018-09-13T18:12:12.203Z,70.85
2018-09-13T18:14:41.256Z,70.57
2018-09-13T18:17:13.617Z,71.17
2018-09-13T18:19:42.928Z,71.06
2018-09-13T18:22:15.469Z,71.00
2018-09-13T18:24:44.543Z,71.41
2018-09-13T18:27:13.499Z,71.38
2018-09-13T18:29:43.963Z,70.84
2018-09-13T18:32:12.892Z,70.95
2018-09-13T18:34:47.458Z,71.13
2018-09-13T18:37:25.504Z,71.15
2018-09-13T18:39:59.071Z,70.95
2018-09-13T18:42:27.987Z,70.78
2018-09-13T18:47:55.978Z,70.83
2018-09-13T18:50:26.749Z,71.76
2018-09-13T18:52:55.948Z,71.03
2018-09-13T18:55:26.620Z,70.77
2018-09-13T18:57:56.355Z,70.35
2018-09-13T19:00:26.705Z,70.17
2018-09-13T19:02:55.841Z,70.09
2018-09-13T19:05:26.165Z,70.43
2018-09-13T19:07:56.343Z,70.04
2018-09-13T19:10:28.597Z,68.74
2018-09-13T19:15:38.710Z,69.45
2018-09-13T19:18:10.028Z,68.97
2018-09-13T19:20:39.232Z,68.85
2018-09-13T19:23:08.111Z,68.95
2018-09-13T19:25:43.121Z,69.11
2018-09-13T19:28:12.110Z,68.46
2018-09-13T19:30:41.715Z,69.25
2018-09-13T19:33:11.378Z,69.14
2018-09-13T19:35:45.211Z,69.50
2018-09-13T19:38:14.124Z,69.50
2018-09-13T19:40:44.167Z,69.41
2018-09-13T19:43:13.107Z,69.23
2018-09-13T19:45:43.429Z,68.91
2018-09-13T19:48:12.680Z,69.42
2018-09-13T19:50:41.736Z,70.14
2018-09-13T19:53:11.063Z,69.50
2018-09-13T19:55:41.499Z,69.31
2018-09-13T19:58:10.397Z,69.50
2018-09-13T20:00:39.707Z,68.41
2018-09-13T20:03:09.627Z,69.03
2018-09-13T20:05:39.196Z,69.18
2018-09-13T20:08:14.869Z,68.39
2018-09-13T20:10:43.885Z,68.42
2018-09-13T20:13:12.980Z,68.87
2018-09-13T20:15:48.795Z,68.74
2018-09-13T20:18:19.186Z,68.97
2018-09-13T20:20:53.621Z,69.05
2018-09-13T20:23:23.915Z,68.83
2018-09-13T20:25:53.056Z,68.82
2018-09-13T20:28:23.471Z,68.80
2018-09-13T20:30:52.732Z,68.40
2018-09-13T20:33:25.719Z,68.20
2018-09-13T20:35:55.303Z,67.82
2018-09-13T20:38:27.571Z,67.86
2018-09-13T20:40:56.529Z,67.50
2018-09-13T20:43:27.444Z,67.62
2018-09-13T20:45:57.344Z,68.41
2018-09-13T20:48:27.163Z,67.66
2018-09-13T20:50:56.201Z,67.23
2018-09-13T20:53:25.126Z,66.83
2018-09-13T20:55:57.175Z,67.58
2018-09-13T20:58:26.150Z,67.86
2018-09-13T21:00:56.774Z,66.88
2018-09-13T21:03:25.669Z,67.43
2018-09-13T21:05:54.563Z,67.55
2018-09-13T21:08:27.174Z,67.94
2018-09-13T21:10:56.169Z,67.44
2018-09-13T21:13:25.176Z,67.19
2018-09-13T21:15:54.492Z,68.04
2018-09-13T21:18:23.479Z,67.32
2018-09-13T21:20:52.379Z,67.06
2018-09-13T21:23:21.540Z,68.02
2018-09-13T21:25:50.458Z,67.56
2018-09-13T21:28:19.265Z,67.18
2018-09-13T21:30:48.595Z,68.45
2018-09-13T21:33:18.186Z,68.07
2018-09-13T21:35:47.032Z,67.62
2018-09-13T21:38:16.376Z,68.09
2018-09-13T21:40:45.345Z,67.45
2018-09-13T21:43:14.345Z,67.42
2018-09-13T21:45:43.621Z,67.54
2018-09-13T21:48:12.659Z,68.41
2018-09-13T21:53:15.340Z,68.06
2018-09-13T21:55:44.559Z,67.57
2018-09-13T21:58:13.364Z,67.92
2018-09-13T22:00:42.686Z,67.84
2018-09-13T22:03:11.563Z,68.13
2018-09-13T22:05:40.457Z,67.70
2018-09-13T22:09:14.906Z,68.17
2018-09-13T22:11:43.783Z,68.31
2018-09-13T22:14:12.748Z,68.79
2018-09-13T22:16:41.912Z,68.13
2018-09-13T22:19:10.890Z,69.02
2018-09-13T22:21:39.798Z,68.21
2018-09-13T22:24:09.037Z,68.86
2018-09-13T22:26:37.945Z,69.47
2018-09-13T22:29:06.874Z,69.13
2018-09-13T22:31:36.312Z,69.94
2018-09-13T22:34:08.267Z,69.92
2018-09-13T22:36:37.568Z,69.25
2018-09-13T22:39:09.074Z,69.78
2018-09-13T22:41:38.634Z,69.79
2018-09-13T22:44:10.538Z,69.28
2018-09-13T22:46:39.374Z,68.93
2018-09-13T22:49:12.988Z,69.43
2018-09-13T22:51:41.858Z,69.04
2018-09-13T22:54:11.014Z,69.27
2018-09-13T22:56:42.533Z,69.18
2018-09-13T22:59:11.356Z,68.86
2018-09-13T23:01:40.233Z,68.94
2018-09-13T23:04:20.082Z,69.43
2018-09-13T23:06:49.676Z,69.08
2018-09-13T23:09:18.496Z,69.47
2018-09-13T23:11:47.617Z,69.54
2018-09-13T23:14:16.554Z,70.35
2018-09-13T23:16:49.577Z,70.43
2018-09-13T23:19:14.656Z,69.82
2018-09-13T23:21:46.486Z,69.92
2018-09-13T23:24:15.372Z,69.72
2018-09-13T23:26:44.221Z,69.83
2018-09-13T23:29:13.081Z,70.18
2018-09-13T23:31:42.316Z,70.42
2018-09-13T23:34:11.090Z,69.97
2018-09-13T23:36:39.952Z,69.94
2018-09-13T23:39:09.962Z,70.09
2018-09-13T23:41:39.572Z,70.34
2018-09-13T23:44:11.945Z,70.19
2018-09-13T23:46:41.039Z,69.83
2018-09-13T23:49:09.912Z,70.12
2018-09-13T23:51:44.763Z,71.03
2018-09-13T23:54:13.592Z,71.59
2018-09-13T23:56:42.402Z,71.75
